sensor_id;sensor_type;location;lat;lon;timestamp;temperature;humidity
45685;DHT22;46836;48.388;16.210;2022-10-17T00:00:43;14.00;99.90
45685;DHT22;46836;48.388;16.210;2022-10-17T00:03:12;14.00;99.90
45685;DHT22;46836;48.388;16.210;2022-10-17T00:05:44;14.00;99.90
45685;DHT22;46836;48.388;16.210;2022-10-17T00:08:13;13.90;99.90
45685;DHT22;46836;48.388;16.210;2022-10-17T00:10:41;13.90;99.90
45685;DHT22;46836;48.388;16.210;2022-10-17T00:13:09;13.90;99.90
45685;DHT22;46836;48.388;16.210;2022-10-17T00:15:36;13.90;99.90
45685;DHT22;46836;48.388;16.210;2022-10-17T00:18:04;13.90;99.90
45685;DHT22;46836;48.388;16.210;2022-10-17T00:20:34;13.80;99.90
45685;DHT22;46836;48.388;16.210;2022-10-17T00:23:01;13.80;99.90
45685;DHT22;46836;48.388;16.210;2022-10-17T00:25:28;13.80;99.90
45685;DHT22;46836;48.388;16.210;2022-10-17T00:27:55;13.80;99.90
45685;DHT22;46836;48.388;16.210;2022-10-17T00:30:22;13.80;99.90
45685;DHT22;46836;48.388;16.210;2022-10-17T00:32:49;13.80;99.90
45685;DHT22;46836;48.388;16.210;2022-10-17T00:35:16;13.80;99.90
45685;DHT22;46836;48.388;16.210;2022-10-17T00:37:43;13.70;99.90
45685;DHT22;46836;48.388;16.210;2022-10-17T00:40:10;13.70;99.90
45685;DHT22;46836;48.388;16.210;2022-10-17T00:42:38;13.70;99.90
45685;DHT22;46836;48.388;16.210;2022-10-17T00:45:41;13.70;99.90
45685;DHT22;46836;48.388;16.210;2022-10-17T00:48:04;13.70;99.90
45685;DHT22;46836;48.388;16.210;2022-10-17T00:50:35;13.60;99.90
45685;DHT22;46836;48.388;16.210;2022-10-17T00:53:05;13.60;99.90
45685;DHT22;46836;48.388;16.210;2022-10-17T00:55:38;13.60;99.90
45685;DHT22;46836;48.388;16.210;2022-10-17T00:58:08;13.60;99.90
45685;DHT22;46836;48.388;16.210;2022-10-17T01:00:35;13.60;99.90
45685;DHT22;46836;48.388;16.210;2022-10-17T01:03:03;13.50;99.90
45685;DHT22;46836;48.388;16.210;2022-10-17T01:05:30;13.50;99.90
45685;DHT22;46836;48.388;16.210;2022-10-17T01:07:58;13.50;99.90
45685;DHT22;46836;48.388;16.210;2022-10-17T01:10:44;13.50;99.90
45685;DHT22;46836;48.388;16.210;2022-10-17T01:13:26;13.50;99.90
45685;DHT22;46836;48.388;16.210;2022-10-17T01:32:34;13.30;99.90
45685;DHT22;46836;48.388;16.210;2022-10-17T01:35:11;13.30;99.90
45685;DHT22;46836;48.388;16.210;2022-10-17T01:37:54;13.30;99.90
45685;DHT22;46836;48.388;16.210;2022-10-17T01:40:29;13.30;99.90
45685;DHT22;46836;48.388;16.210;2022-10-17T01:45:53;13.20;99.90
45685;DHT22;46836;48.388;16.210;2022-10-17T01:48:26;13.20;99.90
45685;DHT22;46836;48.388;16.210;2022-10-17T01:51:16;13.20;99.90
45685;DHT22;46836;48.388;16.210;2022-10-17T01:54:02;13.20;99.90
45685;DHT22;46836;48.388;16.210;2022-10-17T01:56:32;13.10;99.90
45685;DHT22;46836;48.388;16.210;2022-10-17T01:59:03;13.10;99.90
45685;DHT22;46836;48.388;16.210;2022-10-17T02:01:33;13.10;99.90
45685;DHT22;46836;48.388;16.210;2022-10-17T02:04:03;13.10;99.90
45685;DHT22;46836;48.388;16.210;2022-10-17T02:06:34;13.00;99.90
45685;DHT22;46836;48.388;16.210;2022-10-17T02:09:16;13.00;99.90
45685;DHT22;46836;48.388;16.210;2022-10-17T02:11:51;13.00;99.90
45685;DHT22;46836;48.388;16.210;2022-10-17T02:14:37;13.00;99.90
45685;DHT22;46836;48.388;16.210;2022-10-17T02:17:11;13.00;99.90
45685;DHT22;46836;48.388;16.210;2022-10-17T02:22:53;13.00;99.90
45685;DHT22;46836;48.388;16.210;2022-10-17T02:25:26;13.00;99.90
45685;DHT22;46836;48.388;16.210;2022-10-17T02:30:51;13.00;99.90
45685;DHT22;46836;48.388;16.210;2022-10-17T02:35:55;12.90;99.90
45685;DHT22;46836;48.388;16.210;2022-10-17T02:38:24;12.90;99.90
45685;DHT22;46836;48.388;16.210;2022-10-17T02:40:54;12.90;99.90
45685;DHT22;46836;48.388;16.210;2022-10-17T02:43:22;12.90;99.90
45685;DHT22;46836;48.388;16.210;2022-10-17T02:45:50;12.90;99.90
45685;DHT22;46836;48.388;16.210;2022-10-17T02:48:27;12.90;99.90
45685;DHT22;46836;48.388;16.210;2022-10-17T02:54:08;12.90;99.90
45685;DHT22;46836;48.388;16.210;2022-10-17T02:59:36;12.80;99.90
45685;DHT22;46836;48.388;16.210;2022-10-17T03:02:05;12.80;99.90
45685;DHT22;46836;48.388;16.210;2022-10-17T03:04:33;12.80;99.90
45685;DHT22;46836;48.388;16.210;2022-10-17T03:07:00;12.80;99.90
45685;DHT22;46836;48.388;16.210;2022-10-17T03:09:27;12.70;99.90
45685;DHT22;46836;48.388;16.210;2022-10-17T03:11:54;12.70;99.90
45685;DHT22;46836;48.388;16.210;2022-10-17T03:14:21;12.70;99.90
45685;DHT22;46836;48.388;16.210;2022-10-17T03:16:48;12.70;99.90
45685;DHT22;46836;48.388;16.210;2022-10-17T03:19:15;12.70;99.90
45685;DHT22;46836;48.388;16.210;2022-10-17T03:21:42;12.70;99.90
45685;DHT22;46836;48.388;16.210;2022-10-17T03:24:09;12.70;99.90
45685;DHT22;46836;48.388;16.210;2022-10-17T03:26:36;12.70;99.90
45685;DHT22;46836;48.388;16.210;2022-10-17T03:29:03;12.70;99.90
45685;DHT22;46836;48.388;16.210;2022-10-17T03:31:30;12.70;99.90
45685;DHT22;46836;48.388;16.210;2022-10-17T03:33:57;12.70;99.90
45685;DHT22;46836;48.388;16.210;2022-10-17T03:36:24;12.70;99.90
45685;DHT22;46836;48.388;16.210;2022-10-17T03:38:54;12.70;99.90
45685;DHT22;46836;48.388;16.210;2022-10-17T03:41:21;12.70;99.90
45685;DHT22;46836;48.388;16.210;2022-10-17T03:43:48;12.60;99.90
45685;DHT22;46836;48.388;16.210;2022-10-17T03:46:15;12.60;99.90
45685;DHT22;46836;48.388;16.210;2022-10-17T03:48:43;12.60;99.90
45685;DHT22;46836;48.388;16.210;2022-10-17T03:51:10;12.60;99.90
45685;DHT22;46836;48.388;16.210;2022-10-17T03:53:37;12.50;99.90
45685;DHT22;46836;48.388;16.210;2022-10-17T03:56:12;12.50;99.90
45685;DHT22;46836;48.388;16.210;2022-10-17T03:58:40;12.50;99.90
45685;DHT22;46836;48.388;16.210;2022-10-17T04:01:10;12.50;99.90
45685;DHT22;46836;48.388;16.210;2022-10-17T04:03:37;12.50;99.90
45685;DHT22;46836;48.388;16.210;2022-10-17T04:06:05;12.40;99.90
45685;DHT22;46836;48.388;16.210;2022-10-17T04:08:33;12.40;99.90
45685;DHT22;46836;48.388;16.210;2022-10-17T04:11:01;12.40;99.90
45685;DHT22;46836;48.388;16.210;2022-10-17T04:13:29;12.40;99.90
45685;DHT22;46836;48.388;16.210;2022-10-17T04:16:01;12.40;99.90
45685;DHT22;46836;48.388;16.210;2022-10-17T04:18:28;12.40;99.90
45685;DHT22;46836;48.388;16.210;2022-10-17T04:20:56;12.40;99.90
45685;DHT22;46836;48.388;16.210;2022-10-17T04:23:23;12.40;99.90
45685;DHT22;46836;48.388;16.210;2022-10-17T04:25:55;12.40;99.90
45685;DHT22;46836;48.388;16.210;2022-10-17T04:28:23;12.30;99.90
45685;DHT22;46836;48.388;16.210;2022-10-17T04:30:58;12.30;99.90
45685;DHT22;46836;48.388;16.210;2022-10-17T04:33:26;12.30;99.90
45685;DHT22;46836;48.388;16.210;2022-10-17T04:36:04;12.40;99.90
45685;DHT22;46836;48.388;16.210;2022-10-17T04:38:33;12.30;99.90
45685;DHT22;46836;48.388;16.210;2022-10-17T04:41:01;12.30;99.90
45685;DHT22;46836;48.388;16.210;2022-10-17T04:43:29;12.20;99.90
45685;DHT22;46836;48.388;16.210;2022-10-17T04:45:58;12.20;99.90
45685;DHT22;46836;48.388;16.210;2022-10-17T04:48:25;12.20;99.90
45685;DHT22;46836;48.388;16.210;2022-10-17T04:51:03;12.20;99.90
45685;DHT22;46836;48.388;16.210;2022-10-17T04:53:32;12.20;99.90
45685;DHT22;46836;48.388;16.210;2022-10-17T04:55:59;12.20;99.90
45685;DHT22;46836;48.388;16.210;2022-10-17T04:58:29;12.20;99.90
45685;DHT22;46836;48.388;16.210;2022-10-17T05:00:56;12.20;99.90
45685;DHT22;46836;48.388;16.210;2022-10-17T05:03:23;12.20;99.90
45685;DHT22;46836;48.388;16.210;2022-10-17T05:05:50;12.20;99.90
45685;DHT22;46836;48.388;16.210;2022-10-17T05:08:17;12.20;99.90
45685;DHT22;46836;48.388;16.210;2022-10-17T05:10:44;12.20;99.90
45685;DHT22;46836;48.388;16.210;2022-10-17T05:13:14;12.20;99.90
45685;DHT22;46836;48.388;16.210;2022-10-17T05:15:41;12.20;99.90
45685;DHT22;46836;48.388;16.210;2022-10-17T05:18:08;12.20;99.90
45685;DHT22;46836;48.388;16.210;2022-10-17T05:20:35;12.20;99.90
45685;DHT22;46836;48.388;16.210;2022-10-17T05:23:02;12.20;99.90
45685;DHT22;46836;48.388;16.210;2022-10-17T05:25:29;12.20;99.90
45685;DHT22;46836;48.388;16.210;2022-10-17T05:27:56;12.20;99.90
45685;DHT22;46836;48.388;16.210;2022-10-17T05:30:23;12.20;99.90
45685;DHT22;46836;48.388;16.210;2022-10-17T05:32:54;12.20;99.90
45685;DHT22;46836;48.388;16.210;2022-10-17T05:35:21;12.20;99.90
45685;DHT22;46836;48.388;16.210;2022-10-17T05:37:48;12.30;99.90
45685;DHT22;46836;48.388;16.210;2022-10-17T05:40:15;12.20;99.90
45685;DHT22;46836;48.388;16.210;2022-10-17T05:42:47;12.20;99.90
45685;DHT22;46836;48.388;16.210;2022-10-17T05:45:15;12.20;99.90
45685;DHT22;46836;48.388;16.210;2022-10-17T05:47:42;12.20;99.90
45685;DHT22;46836;48.388;16.210;2022-10-17T05:50:09;12.20;99.90
45685;DHT22;46836;48.388;16.210;2022-10-17T05:52:36;12.20;99.90
45685;DHT22;46836;48.388;16.210;2022-10-17T05:55:04;12.30;99.90
45685;DHT22;46836;48.388;16.210;2022-10-17T05:57:32;12.30;99.90
45685;DHT22;46836;48.388;16.210;2022-10-17T05:59:59;12.30;99.90
45685;DHT22;46836;48.388;16.210;2022-10-17T06:02:26;12.30;99.90
45685;DHT22;46836;48.388;16.210;2022-10-17T06:04:54;12.30;99.90
45685;DHT22;46836;48.388;16.210;2022-10-17T06:07:21;12.40;99.90
45685;DHT22;46836;48.388;16.210;2022-10-17T06:09:49;12.40;99.90
45685;DHT22;46836;48.388;16.210;2022-10-17T06:12:16;12.40;99.90
45685;DHT22;46836;48.388;16.210;2022-10-17T06:14:43;12.40;99.90
45685;DHT22;46836;48.388;16.210;2022-10-17T06:17:11;12.40;99.90
45685;DHT22;46836;48.388;16.210;2022-10-17T06:19:42;12.50;99.90
45685;DHT22;46836;48.388;16.210;2022-10-17T06:22:11;12.60;99.90
45685;DHT22;46836;48.388;16.210;2022-10-17T06:24:38;12.60;99.90
45685;DHT22;46836;48.388;16.210;2022-10-17T06:27:05;12.70;99.90
45685;DHT22;46836;48.388;16.210;2022-10-17T06:29:37;12.70;99.90
45685;DHT22;46836;48.388;16.210;2022-10-17T06:32:05;12.80;99.90
45685;DHT22;46836;48.388;16.210;2022-10-17T06:34:36;12.90;99.90
45685;DHT22;46836;48.388;16.210;2022-10-17T06:37:03;13.00;99.90
45685;DHT22;46836;48.388;16.210;2022-10-17T06:39:31;13.10;99.90
45685;DHT22;46836;48.388;16.210;2022-10-17T06:42:00;13.20;99.90
45685;DHT22;46836;48.388;16.210;2022-10-17T06:44:28;13.40;99.90
45685;DHT22;46836;48.388;16.210;2022-10-17T06:46:58;13.50;99.90
45685;DHT22;46836;48.388;16.210;2022-10-17T06:49:26;13.60;99.90
45685;DHT22;46836;48.388;16.210;2022-10-17T06:51:53;13.70;99.90
45685;DHT22;46836;48.388;16.210;2022-10-17T06:54:20;13.80;99.90
45685;DHT22;46836;48.388;16.210;2022-10-17T06:56:47;13.90;99.90
45685;DHT22;46836;48.388;16.210;2022-10-17T06:59:15;13.90;99.90
45685;DHT22;46836;48.388;16.210;2022-10-17T07:01:42;14.10;99.90
45685;DHT22;46836;48.388;16.210;2022-10-17T07:04:13;14.10;99.90
45685;DHT22;46836;48.388;16.210;2022-10-17T07:06:40;14.20;99.90
45685;DHT22;46836;48.388;16.210;2022-10-17T07:09:07;14.30;99.90
45685;DHT22;46836;48.388;16.210;2022-10-17T07:11:35;14.40;99.90
45685;DHT22;46836;48.388;16.210;2022-10-17T07:14:02;14.40;99.90
45685;DHT22;46836;48.388;16.210;2022-10-17T07:16:29;14.50;99.90
45685;DHT22;46836;48.388;16.210;2022-10-17T07:18:56;14.50;99.90
45685;DHT22;46836;48.388;16.210;2022-10-17T07:21:23;14.60;99.90
45685;DHT22;46836;48.388;16.210;2022-10-17T07:23:51;14.70;99.90
45685;DHT22;46836;48.388;16.210;2022-10-17T07:26:18;14.80;99.90
45685;DHT22;46836;48.388;16.210;2022-10-17T07:28:49;14.90;99.90
45685;DHT22;46836;48.388;16.210;2022-10-17T07:31:18;14.90;99.90
45685;DHT22;46836;48.388;16.210;2022-10-17T07:33:45;15.00;99.90
45685;DHT22;46836;48.388;16.210;2022-10-17T07:36:17;15.10;99.90
45685;DHT22;46836;48.388;16.210;2022-10-17T07:38:44;15.20;99.90
45685;DHT22;46836;48.388;16.210;2022-10-17T07:41:12;15.30;99.90
45685;DHT22;46836;48.388;16.210;2022-10-17T07:43:46;15.30;99.90
45685;DHT22;46836;48.388;16.210;2022-10-17T07:46:13;15.40;99.90
45685;DHT22;46836;48.388;16.210;2022-10-17T07:48:40;15.40;99.90
45685;DHT22;46836;48.388;16.210;2022-10-17T07:51:09;15.50;99.90
45685;DHT22;46836;48.388;16.210;2022-10-17T07:53:39;15.50;99.90
45685;DHT22;46836;48.388;16.210;2022-10-17T07:56:14;15.60;99.90
45685;DHT22;46836;48.388;16.210;2022-10-17T07:58:41;15.70;99.90
45685;DHT22;46836;48.388;16.210;2022-10-17T08:01:10;15.80;99.90
45685;DHT22;46836;48.388;16.210;2022-10-17T08:03:45;15.80;99.90
45685;DHT22;46836;48.388;16.210;2022-10-17T08:06:13;15.90;99.90
45685;DHT22;46836;48.388;16.210;2022-10-17T08:08:40;16.00;99.90
45685;DHT22;46836;48.388;16.210;2022-10-17T08:11:10;16.10;99.90
45685;DHT22;46836;48.388;16.210;2022-10-17T08:13:37;16.30;99.90
45685;DHT22;46836;48.388;16.210;2022-10-17T08:16:09;16.40;99.90
45685;DHT22;46836;48.388;16.210;2022-10-17T08:18:38;16.50;99.90
45685;DHT22;46836;48.388;16.210;2022-10-17T08:21:06;16.50;99.90
45685;DHT22;46836;48.388;16.210;2022-10-17T08:23:35;16.60;99.90
45685;DHT22;46836;48.388;16.210;2022-10-17T08:26:04;16.70;99.90
45685;DHT22;46836;48.388;16.210;2022-10-17T08:28:34;16.80;99.90
45685;DHT22;46836;48.388;16.210;2022-10-17T08:31:06;16.90;99.90
45685;DHT22;46836;48.388;16.210;2022-10-17T08:33:33;17.00;99.90
45685;DHT22;46836;48.388;16.210;2022-10-17T08:36:01;17.00;99.90
45685;DHT22;46836;48.388;16.210;2022-10-17T08:38:30;17.10;99.90
45685;DHT22;46836;48.388;16.210;2022-10-17T08:41:42;17.10;99.90
45685;DHT22;46836;48.388;16.210;2022-10-17T08:46:58;17.20;99.90
45685;DHT22;46836;48.388;16.210;2022-10-17T08:49:50;17.30;99.90
45685;DHT22;46836;48.388;16.210;2022-10-17T08:55:43;17.40;99.90
45685;DHT22;46836;48.388;16.210;2022-10-17T09:00:45;17.50;99.90
45685;DHT22;46836;48.388;16.210;2022-10-17T09:03:44;17.60;99.90
45685;DHT22;46836;48.388;16.210;2022-10-17T09:06:24;17.70;99.90
45685;DHT22;46836;48.388;16.210;2022-10-17T09:09:06;17.80;99.90
45685;DHT22;46836;48.388;16.210;2022-10-17T09:11:44;17.80;99.90
45685;DHT22;46836;48.388;16.210;2022-10-17T09:22:56;18.10;99.90
45685;DHT22;46836;48.388;16.210;2022-10-17T09:25:23;18.20;99.90
45685;DHT22;46836;48.388;16.210;2022-10-17T09:27:57;18.30;99.90
45685;DHT22;46836;48.388;16.210;2022-10-17T09:30:39;18.40;99.90
45685;DHT22;46836;48.388;16.210;2022-10-17T09:33:14;18.40;99.90
45685;DHT22;46836;48.388;16.210;2022-10-17T09:36:05;18.50;99.90
45685;DHT22;46836;48.388;16.210;2022-10-17T09:38:41;18.60;99.90
45685;DHT22;46836;48.388;16.210;2022-10-17T09:41:21;18.70;99.90
45685;DHT22;46836;48.388;16.210;2022-10-17T09:44:18;18.80;99.90
45685;DHT22;46836;48.388;16.210;2022-10-17T09:49:38;19.00;99.90
45685;DHT22;46836;48.388;16.210;2022-10-17T09:52:11;19.10;99.90
45685;DHT22;46836;48.388;16.210;2022-10-17T09:55:10;19.20;99.90
45685;DHT22;46836;48.388;16.210;2022-10-17T09:57:56;19.40;99.90
45685;DHT22;46836;48.388;16.210;2022-10-17T10:00:27;19.50;99.90
45685;DHT22;46836;48.388;16.210;2022-10-17T10:03:11;19.50;99.90
45685;DHT22;46836;48.388;16.210;2022-10-17T10:05:41;19.60;99.90
45685;DHT22;46836;48.388;16.210;2022-10-17T10:08:16;19.70;99.90
45685;DHT22;46836;48.388;16.210;2022-10-17T10:11:03;19.80;99.90
45685;DHT22;46836;48.388;16.210;2022-10-17T10:13:32;19.90;99.90
45685;DHT22;46836;48.388;16.210;2022-10-17T10:16:14;20.00;99.90
45685;DHT22;46836;48.388;16.210;2022-10-17T10:18:42;20.10;99.90
45685;DHT22;46836;48.388;16.210;2022-10-17T10:21:20;20.20;99.90
45685;DHT22;46836;48.388;16.210;2022-10-17T10:29:30;20.50;99.90
45685;DHT22;46836;48.388;16.210;2022-10-17T10:32:08;20.50;99.90
45685;DHT22;46836;48.388;16.210;2022-10-17T10:34:42;20.60;99.90
45685;DHT22;46836;48.388;16.210;2022-10-17T10:37:25;20.80;99.90
45685;DHT22;46836;48.388;16.210;2022-10-17T10:39:58;20.90;99.90
45685;DHT22;46836;48.388;16.210;2022-10-17T10:42:34;21.00;99.90
45685;DHT22;46836;48.388;16.210;2022-10-17T10:45:14;21.10;99.90
45685;DHT22;46836;48.388;16.210;2022-10-17T10:48:22;21.30;99.90
45685;DHT22;46836;48.388;16.210;2022-10-17T10:54:09;21.40;99.90
45685;DHT22;46836;48.388;16.210;2022-10-17T10:56:43;21.50;99.90
45685;DHT22;46836;48.388;16.210;2022-10-17T11:07:18;21.80;99.90
45685;DHT22;46836;48.388;16.210;2022-10-17T11:10:20;21.90;99.90
45685;DHT22;46836;48.388;16.210;2022-10-17T11:13:08;22.00;99.90
45685;DHT22;46836;48.388;16.210;2022-10-17T11:15:51;22.00;99.90
45685;DHT22;46836;48.388;16.210;2022-10-17T11:18:27;22.10;99.90
45685;DHT22;46836;48.388;16.210;2022-10-17T11:23:45;22.20;99.90
45685;DHT22;46836;48.388;16.210;2022-10-17T11:26:28;22.20;99.90
45685;DHT22;46836;48.388;16.210;2022-10-17T11:29:02;22.30;99.90
45685;DHT22;46836;48.388;16.210;2022-10-17T11:31:33;22.40;99.90
45685;DHT22;46836;48.388;16.210;2022-10-17T11:34:23;22.50;99.90
45685;DHT22;46836;48.388;16.210;2022-10-17T11:37:08;22.60;99.90
45685;DHT22;46836;48.388;16.210;2022-10-17T11:40:01;22.70;99.90
45685;DHT22;46836;48.388;16.210;2022-10-17T11:42:34;22.80;99.90
45685;DHT22;46836;48.388;16.210;2022-10-17T11:45:09;22.90;99.90
45685;DHT22;46836;48.388;16.210;2022-10-17T11:47:47;22.90;99.90
45685;DHT22;46836;48.388;16.210;2022-10-17T11:50:33;23.00;99.90
45685;DHT22;46836;48.388;16.210;2022-10-17T11:53:23;23.10;99.90
45685;DHT22;46836;48.388;16.210;2022-10-17T11:55:52;23.20;99.90
45685;DHT22;46836;48.388;16.210;2022-10-17T11:59:06;23.20;99.90
45685;DHT22;46836;48.388;16.210;2022-10-17T12:01:42;23.30;99.90
45685;DHT22;46836;48.388;16.210;2022-10-17T12:04:57;23.30;99.90
45685;DHT22;46836;48.388;16.210;2022-10-17T12:12:53;23.40;99.90
45685;DHT22;46836;48.388;16.210;2022-10-17T12:17:59;23.60;99.90
45685;DHT22;46836;48.388;16.210;2022-10-17T12:20:33;23.70;99.90
45685;DHT22;46836;48.388;16.210;2022-10-17T12:31:03;23.90;99.90
45685;DHT22;46836;48.388;16.210;2022-10-17T12:33:36;23.90;99.90
45685;DHT22;46836;48.388;16.210;2022-10-17T12:49:41;24.30;99.90
45685;DHT22;46836;48.388;16.210;2022-10-17T12:52:19;24.30;99.90
45685;DHT22;46836;48.388;16.210;2022-10-17T13:00:32;24.40;99.90
45685;DHT22;46836;48.388;16.210;2022-10-17T13:03:15;24.30;99.90
45685;DHT22;46836;48.388;16.210;2022-10-17T13:05:50;24.20;99.90
45685;DHT22;46836;48.388;16.210;2022-10-17T13:08:27;24.30;99.90
45685;DHT22;46836;48.388;16.210;2022-10-17T13:10:56;24.20;99.90
45685;DHT22;46836;48.388;16.210;2022-10-17T13:13:34;24.20;99.90
45685;DHT22;46836;48.388;16.210;2022-10-17T13:16:03;24.30;99.90
45685;DHT22;46836;48.388;16.210;2022-10-17T13:18:31;24.30;99.90
45685;DHT22;46836;48.388;16.210;2022-10-17T13:21:01;24.20;99.90
45685;DHT22;46836;48.388;16.210;2022-10-17T13:23:34;24.10;99.90
45685;DHT22;46836;48.388;16.210;2022-10-17T13:26:25;24.10;99.90
45685;DHT22;46836;48.388;16.210;2022-10-17T13:29:13;24.10;99.90
45685;DHT22;46836;48.388;16.210;2022-10-17T13:31:43;24.10;99.90
45685;DHT22;46836;48.388;16.210;2022-10-17T13:34:19;24.00;99.90
45685;DHT22;46836;48.388;16.210;2022-10-17T13:36:49;24.00;99.90
45685;DHT22;46836;48.388;16.210;2022-10-17T13:39:22;24.00;99.90
45685;DHT22;46836;48.388;16.210;2022-10-17T13:42:24;24.00;99.90
45685;DHT22;46836;48.388;16.210;2022-10-17T13:44:54;23.90;99.90
45685;DHT22;46836;48.388;16.210;2022-10-17T13:47:28;23.80;99.90
45685;DHT22;46836;48.388;16.210;2022-10-17T13:49:57;23.80;99.90
45685;DHT22;46836;48.388;16.210;2022-10-17T13:52:27;23.70;99.90
45685;DHT22;46836;48.388;16.210;2022-10-17T13:55:07;23.70;99.90
45685;DHT22;46836;48.388;16.210;2022-10-17T13:57:39;23.50;99.90
45685;DHT22;46836;48.388;16.210;2022-10-17T14:00:15;23.50;99.90
45685;DHT22;46836;48.388;16.210;2022-10-17T14:02:44;23.50;99.90
45685;DHT22;46836;48.388;16.210;2022-10-17T14:05:13;23.50;99.90
45685;DHT22;46836;48.388;16.210;2022-10-17T14:08:02;23.40;99.90
45685;DHT22;46836;48.388;16.210;2022-10-17T14:10:43;23.40;99.90
45685;DHT22;46836;48.388;16.210;2022-10-17T14:13:30;23.40;99.90
45685;DHT22;46836;48.388;16.210;2022-10-17T14:16:02;23.30;99.90
45685;DHT22;46836;48.388;16.210;2022-10-17T14:18:32;23.20;99.90
45685;DHT22;46836;48.388;16.210;2022-10-17T14:21:03;23.20;99.90
45685;DHT22;46836;48.388;16.210;2022-10-17T14:26:53;23.00;99.90
45685;DHT22;46836;48.388;16.210;2022-10-17T14:29:29;22.90;99.90
45685;DHT22;46836;48.388;16.210;2022-10-17T14:32:05;22.80;99.90
45685;DHT22;46836;48.388;16.210;2022-10-17T14:34:39;22.80;99.90
45685;DHT22;46836;48.388;16.210;2022-10-17T14:37:12;22.60;99.90
45685;DHT22;46836;48.388;16.210;2022-10-17T14:39:49;22.60;99.90
45685;DHT22;46836;48.388;16.210;2022-10-17T14:42:18;22.50;99.90
45685;DHT22;46836;48.388;16.210;2022-10-17T14:44:50;22.50;99.90
45685;DHT22;46836;48.388;16.210;2022-10-17T14:47:25;22.40;99.90
45685;DHT22;46836;48.388;16.210;2022-10-17T14:52:36;22.20;99.90
45685;DHT22;46836;48.388;16.210;2022-10-17T14:55:24;22.20;99.90
45685;DHT22;46836;48.388;16.210;2022-10-17T14:57:51;22.10;99.90
45685;DHT22;46836;48.388;16.210;2022-10-17T15:00:20;22.00;99.90
45685;DHT22;46836;48.388;16.210;2022-10-17T15:02:48;22.00;99.90
45685;DHT22;46836;48.388;16.210;2022-10-17T15:05:16;21.90;99.90
45685;DHT22;46836;48.388;16.210;2022-10-17T15:07:43;21.90;99.90
45685;DHT22;46836;48.388;16.210;2022-10-17T15:10:37;21.80;99.90
45685;DHT22;46836;48.388;16.210;2022-10-17T15:13:08;21.70;99.90
45685;DHT22;46836;48.388;16.210;2022-10-17T15:15:53;21.70;99.90
45685;DHT22;46836;48.388;16.210;2022-10-17T15:18:20;21.60;99.90
45685;DHT22;46836;48.388;16.210;2022-10-17T15:20:48;21.60;99.90
45685;DHT22;46836;48.388;16.210;2022-10-17T15:23:30;21.60;99.90
45685;DHT22;46836;48.388;16.210;2022-10-17T15:25:57;21.50;99.90
45685;DHT22;46836;48.388;16.210;2022-10-17T15:28:24;21.50;99.90
45685;DHT22;46836;48.388;16.210;2022-10-17T15:30:53;21.40;99.90
45685;DHT22;46836;48.388;16.210;2022-10-17T15:33:20;21.30;99.90
45685;DHT22;46836;48.388;16.210;2022-10-17T15:35:47;21.30;99.90
45685;DHT22;46836;48.388;16.210;2022-10-17T15:38:17;21.20;99.90
45685;DHT22;46836;48.388;16.210;2022-10-17T15:40:44;21.10;99.90
45685;DHT22;46836;48.388;16.210;2022-10-17T15:43:14;21.10;99.90
45685;DHT22;46836;48.388;16.210;2022-10-17T15:45:46;21.00;99.90
45685;DHT22;46836;48.388;16.210;2022-10-17T15:48:18;20.90;99.90
45685;DHT22;46836;48.388;16.210;2022-10-17T15:50:47;20.80;99.90
45685;DHT22;46836;48.388;16.210;2022-10-17T15:53:14;20.70;99.90
45685;DHT22;46836;48.388;16.210;2022-10-17T15:55:41;20.70;99.90
45685;DHT22;46836;48.388;16.210;2022-10-17T15:58:14;20.60;99.90
45685;DHT22;46836;48.388;16.210;2022-10-17T16:00:42;20.50;99.90
45685;DHT22;46836;48.388;16.210;2022-10-17T16:03:10;20.50;99.90
45685;DHT22;46836;48.388;16.210;2022-10-17T16:05:37;20.40;99.90
45685;DHT22;46836;48.388;16.210;2022-10-17T16:08:04;20.30;99.90
45685;DHT22;46836;48.388;16.210;2022-10-17T16:10:32;20.30;99.90
45685;DHT22;46836;48.388;16.210;2022-10-17T16:12:59;20.20;99.90
45685;DHT22;46836;48.388;16.210;2022-10-17T16:15:27;20.20;99.90
45685;DHT22;46836;48.388;16.210;2022-10-17T16:17:56;20.10;99.90
45685;DHT22;46836;48.388;16.210;2022-10-17T16:20:28;20.10;99.90
45685;DHT22;46836;48.388;16.210;2022-10-17T16:22:55;20.10;99.90
45685;DHT22;46836;48.388;16.210;2022-10-17T16:25:28;20.00;99.90
45685;DHT22;46836;48.388;16.210;2022-10-17T16:27:57;19.90;99.90
45685;DHT22;46836;48.388;16.210;2022-10-17T16:30:27;19.90;99.90
45685;DHT22;46836;48.388;16.210;2022-10-17T16:32:55;19.80;99.90
45685;DHT22;46836;48.388;16.210;2022-10-17T16:35:25;19.80;99.90
45685;DHT22;46836;48.388;16.210;2022-10-17T16:37:52;19.70;99.90
45685;DHT22;46836;48.388;16.210;2022-10-17T16:40:19;19.70;99.90
45685;DHT22;46836;48.388;16.210;2022-10-17T16:42:46;19.60;99.90
45685;DHT22;46836;48.388;16.210;2022-10-17T16:45:19;19.60;99.90
45685;DHT22;46836;48.388;16.210;2022-10-17T16:47:46;19.60;99.90
45685;DHT22;46836;48.388;16.210;2022-10-17T16:50:14;19.50;99.90
45685;DHT22;46836;48.388;16.210;2022-10-17T16:52:41;19.50;99.90
45685;DHT22;46836;48.388;16.210;2022-10-17T16:55:09;19.50;99.90
45685;DHT22;46836;48.388;16.210;2022-10-17T16:57:36;19.50;99.90
45685;DHT22;46836;48.388;16.210;2022-10-17T17:00:05;19.40;99.90
45685;DHT22;46836;48.388;16.210;2022-10-17T17:02:32;19.30;99.90
45685;DHT22;46836;48.388;16.210;2022-10-17T17:05:00;19.30;99.90
45685;DHT22;46836;48.388;16.210;2022-10-17T17:07:27;19.30;99.90
45685;DHT22;46836;48.388;16.210;2022-10-17T17:09:56;19.30;99.90
45685;DHT22;46836;48.388;16.210;2022-10-17T17:12:24;19.30;99.90
45685;DHT22;46836;48.388;16.210;2022-10-17T17:14:51;19.20;99.90
45685;DHT22;46836;48.388;16.210;2022-10-17T17:17:18;19.20;99.90
45685;DHT22;46836;48.388;16.210;2022-10-17T17:20:06;19.10;99.90
45685;DHT22;46836;48.388;16.210;2022-10-17T17:22:33;19.10;99.90
45685;DHT22;46836;48.388;16.210;2022-10-17T17:25:01;19.10;99.90
45685;DHT22;46836;48.388;16.210;2022-10-17T17:27:29;19.00;99.90
45685;DHT22;46836;48.388;16.210;2022-10-17T17:29:57;19.00;99.90
45685;DHT22;46836;48.388;16.210;2022-10-17T17:32:24;18.90;99.90
45685;DHT22;46836;48.388;16.210;2022-10-17T17:34:52;18.80;99.90
45685;DHT22;46836;48.388;16.210;2022-10-17T17:37:22;18.80;99.90
45685;DHT22;46836;48.388;16.210;2022-10-17T17:39:49;18.80;99.90